Time;durP1;ratioP1;P1;durP2;ratioP2;P2;SDS_P1;SDS_P2;PMS_P1;PMS_P2;Temp;Humidity;BMP_temperature;BMP_pressure;BME280_temperature;BME280_humidity;BME280_pressure;Samples;Min_cycle;Max_cycle;Signal;HPM_P1;HPM_P2
2022/05/21 00:00:25;;;;;;;7.07;3.53;;;17.60;91.90;;;;;;5070992;28;20530;-66
2022/05/21 00:02:52;;;;;;;6.40;3.47;;;17.50;92.10;;;;;;5073402;28;20225;-65
2022/05/21 00:05:19;;;;;;;7.80;3.50;;;17.50;92.40;;;;;;5074866;28;20565;-64
2022/05/21 00:07:48;;;;;;;6.13;3.10;;;17.40;92.90;;;;;;5074475;28;20517;-63
2022/05/21 00:10:17;;;;;;;4.10;2.93;;;17.30;93.30;;;;;;5074715;28;20338;-62
2022/05/21 00:12:45;;;;;;;9.33;3.37;;;17.30;93.30;;;;;;5074292;28;20205;-63
2022/05/21 00:15:13;;;;;;;6.80;3.47;;;17.20;93.70;;;;;;5074304;28;20208;-63
2022/05/21 00:17:40;;;;;;;6.50;3.77;;;17.20;93.90;;;;;;5074494;28;20201;-64
2022/05/21 00:20:47;;;;;;;7.90;3.57;;;17.20;94.20;;;;;;5074364;28;20208;-63
2022/05/21 00:22:58;;;;;;;5.93;3.67;;;17.10;94.40;;;;;;5074016;28;20686;-63
2022/05/21 00:25:25;;;;;;;8.03;3.53;;;17.10;94.70;;;;;;5074154;28;20204;-63
2022/05/21 00:27:52;;;;;;;6.87;3.30;;;17.00;95.00;;;;;;5074033;28;20224;-63
2022/05/21 00:30:19;;;;;;;5.97;3.30;;;17.00;95.20;;;;;;5074078;28;20217;-64
2022/05/21 00:32:46;;;;;;;9.03;3.73;;;16.90;95.40;;;;;;5073802;28;20222;-63
2022/05/21 00:35:12;;;;;;;5.87;3.50;;;16.90;95.50;;;;;;5073955;28;20209;-63
2022/05/21 00:37:39;;;;;;;12.67;3.50;;;16.90;96.00;;;;;;5073491;28;20215;-63
2022/05/21 00:40:09;;;;;;;6.40;3.40;;;16.90;96.00;;;;;;5073879;28;20220;-63
2022/05/21 00:42:35;;;;;;;6.83;3.50;;;16.90;96.20;;;;;;5073577;28;20662;-64
2022/05/21 00:45:02;;;;;;;6.97;3.83;;;16.80;96.80;;;;;;5073936;28;20229;-63
2022/05/21 00:47:29;;;;;;;6.60;3.50;;;16.80;97.00;;;;;;5073369;28;20201;-62
2022/05/21 00:49:56;;;;;;;7.40;3.60;;;16.80;97.30;;;;;;5073953;28;20207;-64
2022/05/21 00:52:27;;;;;;;8.70;3.93;;;16.70;97.50;;;;;;5073341;28;20204;-62
2022/05/21 00:54:57;;;;;;;9.20;3.80;;;16.70;97.70;;;;;;5073707;28;20623;-63
2022/05/21 00:57:29;;;;;;;6.50;3.50;;;16.70;97.90;;;;;;5073328;28;20236;-63
2022/05/21 00:59:59;;;;;;;5.93;3.70;;;16.70;98.10;;;;;;5073623;28;20208;-58
2022/05/21 01:02:30;;;;;;;8.57;4.00;;;16.70;98.20;;;;;;5073670;28;20205;-60
2022/05/21 01:04:57;;;;;;;6.07;3.90;;;16.70;98.30;;;;;;5073502;28;20300;-60
2022/05/21 01:07:25;;;;;;;7.23;3.60;;;16.60;98.90;;;;;;5073319;28;20209;-59
2022/05/21 01:09:54;;;;;;;8.27;3.33;;;16.60;99.10;;;;;;5072991;28;20233;-60
2022/05/21 01:12:29;;;;;;;7.07;3.70;;;16.50;99.30;;;;;;5073236;28;20205;-61
2022/05/21 01:14:59;;;;;;;6.60;3.60;;;16.50;99.70;;;;;;5072954;28;20196;-58
2022/05/21 01:17:27;;;;;;;5.63;3.63;;;16.50;99.70;;;;;;5072892;28;20204;-59
2022/05/21 01:19:58;;;;;;;8.40;3.90;;;16.50;99.70;;;;;;5073392;28;20212;-59
2022/05/21 01:22:27;;;;;;;9.73;3.63;;;16.60;99.90;;;;;;5072796;28;20212;-58
2022/05/21 01:24:54;;;;;;;9.43;3.67;;;16.50;99.90;;;;;;5073140;28;20295;-59
2022/05/21 01:27:22;;;;;;;7.30;4.10;;;16.50;99.90;;;;;;5073033;28;20212;-59
2022/05/21 01:29:51;;;;;;;8.40;3.60;;;16.50;99.90;;;;;;5073241;28;20204;-60
2022/05/21 01:32:19;;;;;;;5.43;3.33;;;16.50;99.90;;;;;;5072632;28;20211;-59
2022/05/21 01:34:46;;;;;;;4.43;3.50;;;16.40;99.90;;;;;;5072860;28;20197;-59
2022/05/21 01:37:13;;;;;;;6.73;3.93;;;16.40;99.90;;;;;;5073098;28;20205;-58
2022/05/21 01:39:41;;;;;;;7.40;3.87;;;16.30;99.90;;;;;;5072384;28;20205;-61
2022/05/21 01:42:09;;;;;;;7.27;4.00;;;16.30;99.90;;;;;;5072845;28;20670;-60
2022/05/21 01:44:40;;;;;;;7.13;4.10;;;16.30;99.90;;;;;;5072182;28;20229;-60
2022/05/21 01:47:09;;;;;;;7.40;3.97;;;16.30;99.90;;;;;;5072772;28;20192;-59
2022/05/21 01:49:36;;;;;;;6.77;3.97;;;16.30;99.90;;;;;;5072327;28;20204;-60
2022/05/21 01:52:03;;;;;;;7.97;3.80;;;16.20;99.90;;;;;;5072501;28;20219;-60
2022/05/21 01:54:30;;;;;;;14.37;4.13;;;16.30;99.90;;;;;;5072086;28;20212;-59
2022/05/21 01:56:58;;;;;;;7.80;4.00;;;16.30;99.90;;;;;;5072279;28;20598;-58
2022/05/21 01:59:25;;;;;;;6.23;3.80;;;16.30;99.90;;;;;;5072136;28;20201;-59
2022/05/21 02:01:52;;;;;;;7.67;4.20;;;16.30;99.90;;;;;;5072571;28;20205;-60
2022/05/21 02:04:19;;;;;;;5.63;3.97;;;16.30;99.90;;;;;;5071758;28;20244;-60
2022/05/21 02:06:46;;;;;;;7.00;4.10;;;16.30;99.90;;;;;;5072388;28;20651;-60
2022/05/21 02:09:13;;;;;;;6.57;3.67;;;16.30;99.90;;;;;;5072135;28;20236;-59
2022/05/21 02:11:40;;;;;;;6.97;4.13;;;16.30;99.90;;;;;;5071926;28;20208;-60
2022/05/21 02:14:09;;;;;;;9.80;4.27;;;16.30;99.90;;;;;;5072034;28;20204;-60
2022/05/21 02:16:36;;;;;;;6.77;3.50;;;16.20;99.90;;;;;;5072046;28;20204;-61
2022/05/21 02:19:04;;;;;;;7.40;4.17;;;16.20;99.90;;;;;;5072159;28;20560;-60
2022/05/21 02:21:32;;;;;;;5.80;4.03;;;16.20;99.90;;;;;;5071877;28;20675;-59
2022/05/21 02:23:59;;;;;;;9.27;4.07;;;16.20;99.90;;;;;;5071872;28;20217;-60
2022/05/21 02:26:27;;;;;;;12.60;4.33;;;16.20;99.90;;;;;;5070824;28;20213;-61
2022/05/21 02:28:54;;;;;;;10.13;4.20;;;16.20;99.90;;;;;;5072289;28;20201;-61
2022/05/21 02:31:22;;;;;;;7.33;4.33;;;16.20;99.90;;;;;;5071933;28;20539;-61
2022/05/21 02:33:48;;;;;;;8.13;4.23;;;16.20;99.90;;;;;;5072122;28;20196;-60
2022/05/21 02:36:16;;;;;;;9.03;4.63;;;16.20;99.90;;;;;;5071910;28;20205;-61
2022/05/21 02:41:27;;;;;;;9.07;4.60;;;16.20;99.90;;;;;;5071562;28;20199;-61
2022/05/21 02:43:54;;;;;;;13.73;5.03;;;16.20;99.90;;;;;;5071893;28;20690;-61
2022/05/21 02:46:22;;;;;;;7.80;4.23;;;16.30;99.90;;;;;;5071657;28;20200;-62
2022/05/21 02:48:49;;;;;;;7.53;4.03;;;16.20;99.90;;;;;;5072170;28;20213;-60
2022/05/21 02:51:16;;;;;;;5.80;3.97;;;16.30;99.90;;;;;;5071663;28;20227;-60
2022/05/21 02:53:42;;;;;;;7.53;4.30;;;16.30;99.90;;;;;;5071843;28;20604;-60
2022/05/21 02:56:13;;;;;;;8.63;4.47;;;16.30;99.90;;;;;;5071326;28;20661;-62
2022/05/21 02:58:40;;;;;;;7.73;4.40;;;16.40;99.90;;;;;;5071561;28;20193;-58
2022/05/21 03:01:07;;;;;;;7.57;4.20;;;16.40;99.90;;;;;;5071477;28;20575;-59
2022/05/21 03:03:35;;;;;;;6.20;3.80;;;16.40;99.90;;;;;;5071619;28;20204;-59
2022/05/21 03:06:02;;;;;;;8.07;3.90;;;16.40;99.90;;;;;;5071452;28;20209;-60
2022/05/21 03:11:13;;;;;;;8.20;3.67;;;16.40;99.90;;;;;;5071032;28;20191;-58
2022/05/21 03:13:40;;;;;;;8.70;4.37;;;16.50;99.90;;;;;;5071105;28;20205;-59
2022/05/21 03:16:07;;;;;;;8.17;4.30;;;16.50;99.90;;;;;;5070977;28;20224;-60
2022/05/21 03:18:36;;;;;;;8.53;4.00;;;16.50;99.90;;;;;;5071109;28;20243;-60
2022/05/21 03:21:02;;;;;;;7.03;3.97;;;16.60;99.90;;;;;;5071117;28;20209;-60
2022/05/21 03:23:30;;;;;;;7.37;4.80;;;16.70;99.90;;;;;;5071380;28;20200;-59
2022/05/21 03:25:56;;;;;;;6.80;3.90;;;16.70;99.90;;;;;;5071260;28;20227;-59
2022/05/21 03:28:23;;;;;;;6.57;4.43;;;16.70;99.90;;;;;;5071034;28;20286;-60
2022/05/21 03:30:51;;;;;;;8.13;4.60;;;16.70;99.90;;;;;;5071264;28;20202;-60
2022/05/21 03:33:17;;;;;;;7.07;4.27;;;16.80;99.90;;;;;;5070887;28;20211;-60
2022/05/21 03:35:45;;;;;;;8.93;3.70;;;16.90;99.90;;;;;;5071171;28;20205;-60
2022/05/21 03:38:13;;;;;;;7.47;4.17;;;16.90;99.90;;;;;;5074463;28;20207;-59
2022/05/21 03:40:40;;;;;;;11.33;4.90;;;17.00;99.90;;;;;;5075117;28;20626;-60
2022/05/21 03:43:07;;;;;;;6.87;4.10;;;17.10;99.90;;;;;;5074978;28;20216;-58
2022/05/21 03:45:34;;;;;;;7.83;4.07;;;17.10;99.90;;;;;;5074475;28;20221;-59
2022/05/21 03:48:01;;;;;;;6.93;4.43;;;17.10;99.90;;;;;;5074689;28;20212;-60
2022/05/21 03:50:31;;;;;;;9.93;3.97;;;17.10;99.90;;;;;;5074926;28;20298;-59
2022/05/21 03:52:59;;;;;;;7.53;4.17;;;17.20;99.90;;;;;;5075145;28;20599;-59
2022/05/21 03:55:26;;;;;;;8.00;4.00;;;17.20;99.90;;;;;;5074895;28;20686;-59
2022/05/21 03:57:53;;;;;;;7.50;4.40;;;17.30;99.90;;;;;;5034842;28;20219;-60
2022/05/21 04:00:21;;;;;;;8.03;3.60;;;17.40;99.90;;;;;;5034388;28;20223;-61
2022/05/21 04:02:48;;;;;;;5.83;4.40;;;17.50;99.90;;;;;;5034815;28;20229;-60
2022/05/21 04:05:16;;;;;;;10.33;4.43;;;17.50;99.90;;;;;;5034061;28;20218;-59
2022/05/21 04:07:43;;;;;;;6.70;4.33;;;17.60;99.90;;;;;;5034818;28;20297;-60
2022/05/21 04:10:14;;;;;;;6.37;3.80;;;17.60;99.90;;;;;;5034418;28;20206;-59
2022/05/21 04:12:41;;;;;;;7.33;4.00;;;17.60;99.90;;;;;;5034733;28;20249;-60
2022/05/21 04:15:09;;;;;;;8.17;4.27;;;17.70;99.90;;;;;;5034304;28;20306;-58
2022/05/21 04:17:36;;;;;;;7.10;3.83;;;17.70;99.90;;;;;;5034534;28;20782;-60
2022/05/21 04:20:05;;;;;;;6.03;4.40;;;17.70;99.90;;;;;;5034175;28;20234;-60
2022/05/21 04:22:31;;;;;;;11.13;4.90;;;17.70;99.90;;;;;;5034402;28;20292;-59
2022/05/21 04:24:59;;;;;;;6.40;4.20;;;17.80;99.90;;;;;;5034050;28;20232;-61
2022/05/21 04:27:27;;;;;;;6.50;3.97;;;17.80;99.90;;;;;;5034012;28;20219;-59
2022/05/21 04:29:54;;;;;;;7.47;4.43;;;17.90;99.90;;;;;;5034062;28;20217;-58
2022/05/21 04:32:20;;;;;;;12.00;5.70;;;18.00;99.90;;;;;;5034131;28;20203;-60
2022/05/21 04:34:47;;;;;;;8.53;5.00;;;18.10;99.90;;;;;;5034277;28;20204;-59
2022/05/21 04:37:14;;;;;;;7.93;4.47;;;18.20;99.90;;;;;;5033735;28;20218;-60
2022/05/21 04:39:41;;;;;;;8.33;4.17;;;18.30;99.90;;;;;;5034420;28;20580;-60
2022/05/21 04:42:08;;;;;;;6.37;4.10;;;18.40;99.90;;;;;;5033818;28;20215;-65
2022/05/21 04:44:37;;;;;;;6.13;4.20;;;18.50;99.90;;;;;;5034032;28;20223;-60
2022/05/21 04:47:05;;;;;;;10.33;5.00;;;18.60;99.90;;;;;;5033637;28;20263;-59
2022/05/21 04:49:32;;;;;;;9.00;4.87;;;18.60;99.90;;;;;;5032798;28;20206;-60
2022/05/21 04:52:01;;;;;;;9.77;4.43;;;18.70;99.90;;;;;;5033382;28;20211;-61
2022/05/21 04:54:28;;;;;;;12.13;4.63;;;18.80;99.90;;;;;;5033523;28;20210;-60
2022/05/21 04:56:55;;;;;;;8.93;4.13;;;18.90;99.90;;;;;;5057455;28;20251;-59
2022/05/21 04:59:21;;;;;;;9.07;4.30;;;19.00;99.90;;;;;;5073683;28;20544;-59
2022/05/21 05:01:50;;;;;;;6.93;4.20;;;19.10;99.90;;;;;;5073396;28;20217;-59
2022/05/21 05:04:16;;;;;;;5.93;3.77;;;19.20;99.90;;;;;;5073118;28;20298;-60
2022/05/21 05:06:43;;;;;;;8.63;4.40;;;19.40;99.90;;;;;;5073580;28;20221;-59
2022/05/21 05:09:10;;;;;;;8.37;4.20;;;19.50;99.90;;;;;;5073375;28;20201;-59
2022/05/21 05:11:37;;;;;;;8.33;3.83;;;19.50;99.90;;;;;;5073635;28;20293;-61
2022/05/21 05:14:04;;;;;;;6.97;4.17;;;19.60;99.90;;;;;;5073088;28;20256;-59
2022/05/21 05:16:31;;;;;;;11.23;5.27;;;19.70;99.90;;;;;;5073722;28;20204;-59
2022/05/21 05:18:59;;;;;;;7.23;4.67;;;19.70;99.90;;;;;;5072692;28;20237;-62
2022/05/21 05:21:26;;;;;;;8.70;4.07;;;19.80;99.90;;;;;;5073284;28;20560;-60
2022/05/21 05:23:53;;;;;;;11.97;4.70;;;19.80;99.90;;;;;;5072992;28;20239;-59
2022/05/21 05:26:22;;;;;;;8.57;4.50;;;19.90;99.90;;;;;;5073370;28;20224;-61
2022/05/21 05:28:48;;;;;;;6.27;3.83;;;20.00;99.90;;;;;;5072867;28;20690;-61
2022/05/21 05:31:16;;;;;;;6.23;4.10;;;20.10;99.90;;;;;;5073097;28;20573;-60
2022/05/21 05:33:43;;;;;;;7.87;4.20;;;20.20;99.90;;;;;;5073209;28;20200;-58
2022/05/21 05:36:11;;;;;;;8.93;3.77;;;20.30;99.90;;;;;;5072545;28;20203;-60
2022/05/21 05:38:38;;;;;;;5.37;4.03;;;20.40;99.90;;;;;;5072769;28;20219;-61
2022/05/21 05:41:07;;;;;;;6.90;4.13;;;20.50;99.90;;;;;;5072460;28;20738;-59
2022/05/21 05:43:34;;;;;;;6.83;4.23;;;20.60;99.90;;;;;;5072641;28;20213;-60
2022/05/21 05:46:01;;;;;;;10.27;4.37;;;20.70;99.90;;;;;;5072332;28;20290;-60
2022/05/21 05:48:28;;;;;;;6.27;4.00;;;20.70;99.90;;;;;;5072322;28;20215;-60
2022/05/21 05:50:55;;;;;;;6.57;3.50;;;20.80;99.90;;;;;;5072509;28;20597;-60
2022/05/21 05:53:24;;;;;;;5.93;3.57;;;20.90;99.90;;;;;;5072575;28;20208;-59
2022/05/21 05:55:51;;;;;;;8.57;4.23;;;21.00;99.90;;;;;;5072444;28;20709;-59
2022/05/21 06:01:02;;;;;;;8.20;4.30;;;21.20;99.90;;;;;;5072068;28;20192;-60
2022/05/21 06:03:28;;;;;;;6.83;4.03;;;21.30;99.90;;;;;;5072305;28;20210;-60
2022/05/21 06:05:55;;;;;;;6.40;4.23;;;21.40;99.90;;;;;;5072162;28;20253;-60
2022/05/21 06:08:23;;;;;;;7.40;4.23;;;21.40;99.90;;;;;;5072255;28;20211;-60
2022/05/21 06:10:51;;;;;;;11.13;4.30;;;21.40;99.90;;;;;;5071768;28;20209;-59
2022/05/21 06:13:18;;;;;;;7.00;3.80;;;21.50;99.90;;;;;;5071937;28;20296;-60
2022/05/21 06:15:45;;;;;;;5.83;4.10;;;21.50;99.90;;;;;;5071630;28;20212;-62
2022/05/21 06:18:14;;;;;;;9.03;4.77;;;21.60;99.90;;;;;;5071819;28;20221;-59
2022/05/21 06:20:43;;;;;;;9.73;4.20;;;21.60;99.90;;;;;;5079984;28;20204;-60
2022/05/21 06:23:12;;;;;;;7.83;4.37;;;21.70;99.90;;;;;;5081393;28;20203;-59
2022/05/21 06:25:40;;;;;;;8.87;3.97;;;21.80;99.90;;;;;;5080496;28;20216;-61
2022/05/21 06:28:08;;;;;;;10.10;4.13;;;21.80;99.90;;;;;;5071443;28;20200;-60
2022/05/21 06:30:38;;;;;;;7.43;4.53;;;21.80;99.90;;;;;;5071654;28;20220;-61
2022/05/21 06:33:19;;;;;;;8.27;4.00;;;21.90;99.90;;;;;;5071710;28;20285;-61
2022/05/21 06:35:47;;;;;;;7.87;4.10;;;21.90;99.90;;;;;;5071886;28;20673;-60
2022/05/21 06:38:14;;;;;;;6.90;4.07;;;22.00;99.90;;;;;;5071027;28;20777;-61
2022/05/21 06:40:43;;;;;;;11.70;4.40;;;22.10;99.90;;;;;;5071006;28;20367;-60
2022/05/21 06:43:09;;;;;;;18.70;4.70;;;22.00;99.90;;;;;;5072093;28;20207;-61
2022/05/21 06:45:36;;;;;;;6.23;3.97;;;22.00;99.90;;;;;;5071676;28;20269;-59
2022/05/21 06:48:04;;;;;;;6.10;3.57;;;21.90;99.90;;;;;;5071456;28;20215;-59
2022/05/21 06:50:31;;;;;;;7.37;4.20;;;21.90;99.90;;;;;;5071544;28;20204;-62
2022/05/21 06:52:59;;;;;;;11.60;4.00;;;22.10;99.90;;;;;;5071242;28;20241;-60
2022/05/21 06:55:26;;;;;;;10.17;4.20;;;22.10;99.90;;;;;;5070949;28;20205;-60
2022/05/21 06:57:55;;;;;;;7.87;4.03;;;22.20;99.90;;;;;;5071712;28;20224;-60
2022/05/21 07:00:23;;;;;;;7.97;4.13;;;22.30;99.90;;;;;;5071603;28;20546;-59
2022/05/21 07:02:50;;;;;;;11.87;4.50;;;22.30;99.90;;;;;;5071416;28;20207;-62
2022/05/21 07:08:05;;;;;;;6.97;4.03;;;22.50;99.90;;;;;;5071577;28;20192;-61
2022/05/21 07:10:32;;;;;;;8.80;4.67;;;22.50;99.90;;;;;;5070492;28;20240;-59
2022/05/21 07:13:01;;;;;;;7.20;3.73;;;22.60;99.90;;;;;;5071237;28;20201;-60
2022/05/21 07:15:27;;;;;;;7.77;3.83;;;22.70;99.90;;;;;;5071434;28;20201;-60
2022/05/21 07:18:00;;;;;;;7.40;4.00;;;22.70;99.90;;;;;;5071383;28;20225;-61
2022/05/21 07:20:28;;;;;;;7.63;4.23;;;22.70;99.90;;;;;;5071325;28;20251;-60
2022/05/21 07:22:55;;;;;;;8.70;4.40;;;22.70;99.90;;;;;;5071599;28;20682;-59
2022/05/21 07:25:24;;;;;;;5.40;3.80;;;22.80;99.90;;;;;;5070908;28;20225;-60
2022/05/21 07:27:51;;;;;;;8.60;4.00;;;22.90;99.90;;;;;;5070883;28;20211;-60
2022/05/21 07:30:20;;;;;;;7.80;4.37;;;23.00;99.90;;;;;;5073680;28;20682;-60
2022/05/21 07:32:50;;;;;;;6.10;3.67;;;23.00;99.90;;;;;;5088359;28;20210;-60
2022/05/21 07:35:19;;;;;;;7.37;3.90;;;23.00;99.90;;;;;;5091577;28;20277;-60
2022/05/21 07:37:45;;;;;;;9.03;4.17;;;23.00;99.90;;;;;;5091454;28;20209;-58
2022/05/21 07:40:14;;;;;;;8.73;3.90;;;23.10;99.90;;;;;;5090731;28;20205;-60
2022/05/21 07:42:41;;;;;;;7.27;4.40;;;23.20;99.90;;;;;;5091325;28;20239;-61
2022/05/21 07:45:10;;;;;;;7.70;4.30;;;23.20;99.90;;;;;;5091190;28;20220;-61
2022/05/21 07:47:39;;;;;;;5.17;3.80;;;23.30;99.90;;;;;;5091665;28;20564;-63
2022/05/21 07:50:07;;;;;;;7.47;3.93;;;23.50;99.90;;;;;;5091513;28;20206;-61
2022/05/21 07:52:34;;;;;;;6.83;3.40;;;23.60;99.90;;;;;;5091409;28;20203;-61
2022/05/21 07:55:01;;;;;;;10.00;4.20;;;23.80;99.90;;;;;;5090982;28;20676;-59
2022/05/21 07:57:28;;;;;;;8.20;4.37;;;23.90;99.90;;;;;;5090899;28;20239;-61
2022/05/21 07:59:55;;;;;;;6.27;3.87;;;24.00;99.90;;;;;;5091337;28;20207;-60
2022/05/21 08:02:21;;;;;;;10.43;3.53;;;24.10;99.90;;;;;;5091277;28;20201;-60
2022/05/21 08:04:51;;;;;;;7.70;3.53;;;24.10;99.90;;;;;;5091360;28;20558;-61
2022/05/21 08:07:18;;;;;;;6.23;3.30;;;24.20;99.90;;;;;;5091280;28;20235;-60
2022/05/21 08:09:45;;;;;;;8.30;3.50;;;24.30;99.90;;;;;;5090735;28;20620;-60
2022/05/21 08:12:14;;;;;;;6.30;3.60;;;24.30;99.90;;;;;;5091192;28;20386;-59
2022/05/21 08:14:41;;;;;;;6.87;3.80;;;24.40;99.90;;;;;;5091273;28;20574;-63
2022/05/21 08:17:09;;;;;;;7.30;3.67;;;24.50;99.90;;;;;;5091459;28;20639;-61
2022/05/21 08:19:35;;;;;;;9.70;3.50;;;24.50;99.90;;;;;;5091185;28;20679;-60
2022/05/21 08:27:29;;;;;;;7.60;3.37;;;24.80;99.90;;;;;;5094454;28;20212;-65
2022/05/21 08:29:56;;;;;;;8.33;3.20;;;24.90;99.90;;;;;;5094791;28;20205;-61
2022/05/21 08:32:23;;;;;;;6.70;3.40;;;24.90;99.90;;;;;;5094312;28;20206;-63
2022/05/21 08:34:52;;;;;;;6.73;3.60;;;25.00;99.80;;;;;;5094378;28;20236;-60
2022/05/21 08:37:21;;;;;;;6.87;3.63;;;25.10;99.80;;;;;;5094552;28;20206;-63
2022/05/21 08:39:48;;;;;;;5.67;3.30;;;25.30;99.70;;;;;;5093593;28;20206;-60
2022/05/21 08:42:21;;;;;;;6.50;3.83;;;25.30;99.10;;;;;;5094104;28;20205;-62
2022/05/21 08:44:53;;;;;;;8.47;3.50;;;25.30;99.00;;;;;;5094310;28;20193;-61
2022/05/21 08:47:22;;;;;;;5.33;3.40;;;25.20;99.10;;;;;;5094044;28;20208;-62
2022/05/21 08:49:56;;;;;;;7.30;3.00;;;25.10;98.70;;;;;;5094462;28;20214;-62
2022/05/21 08:52:29;;;;;;;6.77;3.40;;;25.20;98.10;;;;;;5094137;28;20200;-61
2022/05/21 08:54:59;;;;;;;6.03;3.20;;;25.20;97.80;;;;;;5093681;28;20187;-61
2022/05/21 08:57:29;;;;;;;6.33;3.13;;;25.20;97.90;;;;;;5093485;28;20258;-64
2022/05/21 09:00:08;;;;;;;9.53;3.30;;;25.30;98.10;;;;;;5094233;28;20548;-62
2022/05/21 09:02:37;;;;;;;4.57;3.10;;;25.40;97.90;;;;;;5093995;28;20233;-61
2022/05/21 09:05:07;;;;;;;9.47;3.67;;;25.40;98.00;;;;;;5094081;28;20202;-65
2022/05/21 09:07:47;;;;;;;6.60;3.60;;;25.40;97.80;;;;;;5093817;28;20239;-61
2022/05/21 09:10:29;;;;;;;9.90;3.20;;;25.40;97.90;;;;;;5093477;28;20196;-60
2022/05/21 09:13:04;;;;;;;5.90;3.00;;;25.40;97.90;;;;;;5093628;28;20226;-61
2022/05/21 09:18:15;;;;;;;6.97;3.13;;;25.30;97.90;;;;;;5093470;28;20654;-60
2022/05/21 09:20:51;;;;;;;8.83;3.33;;;25.20;98.20;;;;;;5093746;28;20297;-64
2022/05/21 09:23:19;;;;;;;12.43;3.90;;;25.10;98.50;;;;;;5093547;28;20582;-60
2022/05/21 09:25:46;;;;;;;8.47;3.70;;;24.90;99.30;;;;;;5093171;28;20211;-60
2022/05/21 09:28:22;;;;;;;10.07;3.20;;;24.50;99.90;;;;;;5093469;28;20202;-60
2022/05/21 09:30:57;;;;;;;8.90;4.10;;;24.10;99.90;;;;;;5093553;28;20190;-60
2022/05/21 09:33:27;;;;;;;8.70;3.87;;;23.70;99.90;;;;;;5093340;28;20628;-59
2022/05/21 09:35:55;;;;;;;10.90;4.30;;;23.20;99.90;;;;;;5092842;28;20365;-61
2022/05/21 09:38:27;;;;;;;8.03;4.80;;;22.70;99.90;;;;;;5092886;28;20208;-61
2022/05/21 09:41:09;;;;;;;9.17;4.50;;;22.30;99.90;;;;;;5093406;28;20210;-62
2022/05/21 09:46:24;;;;;;;7.17;5.03;;;21.60;99.90;;;;;;5092735;28;20219;-59
2022/05/21 09:48:52;;;;;;;13.27;5.53;;;21.30;99.90;;;;;;5093133;28;20204;-62
2022/05/21 09:51:29;;;;;;;8.73;4.90;;;21.10;99.90;;;;;;5092581;28;20216;-61
2022/05/21 09:53:58;;;;;;;9.60;5.57;;;21.00;99.90;;;;;;5092308;28;20373;-60
2022/05/21 09:56:27;;;;;;;9.53;6.03;;;20.90;99.90;;;;;;5092424;28;20233;-61
2022/05/21 09:59:09;;;;;;;11.27;6.03;;;20.80;99.90;;;;;;5092934;28;20211;-61
2022/05/21 10:01:38;;;;;;;7.50;5.50;;;20.80;99.90;;;;;;5092702;28;20185;-60
2022/05/21 10:04:15;;;;;;;6.80;5.13;;;20.70;99.90;;;;;;5093046;28;20204;-61
2022/05/21 10:06:46;;;;;;;7.97;5.40;;;20.60;99.90;;;;;;5092794;28;20544;-61
2022/05/21 10:12:08;;;;;;;10.53;5.63;;;20.50;99.90;;;;;;5092597;28;20206;-60
2022/05/21 10:14:41;;;;;;;9.50;6.33;;;20.50;99.90;;;;;;5092370;28;20185;-61
2022/05/21 10:17:14;;;;;;;13.37;5.93;;;20.40;99.90;;;;;;5092495;28;20189;-60
2022/05/21 10:19:50;;;;;;;7.43;5.20;;;20.40;99.90;;;;;;5092279;28;20192;-60
2022/05/21 10:22:26;;;;;;;6.00;4.53;;;20.30;99.90;;;;;;5092579;28;20196;-60
2022/05/21 10:25:04;;;;;;;10.10;5.80;;;20.30;99.90;;;;;;5104793;28;20210;-59
2022/05/21 10:27:47;;;;;;;12.03;7.80;;;20.30;99.90;;;;;;5112455;28;20219;-59
2022/05/21 10:30:18;;;;;;;10.33;5.90;;;20.30;99.90;;;;;;5111706;28;20201;-59
2022/05/21 10:33:10;;;;;;;8.73;5.80;;;20.30;99.90;;;;;;5112475;28;20625;-60
2022/05/21 10:35:50;;;;;;;7.67;5.17;;;20.20;99.90;;;;;;5112594;28;20191;-60
2022/05/21 10:38:30;;;;;;;9.30;5.60;;;20.20;99.90;;;;;;5112332;28;20191;-60
2022/05/21 10:41:03;;;;;;;8.10;5.47;;;20.20;99.90;;;;;;5112735;28;20196;-59
2022/05/21 10:43:47;;;;;;;7.77;4.83;;;20.10;99.90;;;;;;5112586;28;20191;-60
2022/05/21 10:46:25;;;;;;;8.77;5.30;;;20.10;99.90;;;;;;5111615;28;20230;-59
2022/05/21 10:49:23;;;;;;;8.97;6.17;;;20.10;99.90;;;;;;5112605;28;20190;-61
2022/05/21 10:51:56;;;;;;;9.40;5.43;;;20.00;99.90;;;;;;5099831;28;20230;-60
2022/05/21 10:54:39;;;;;;;9.60;5.70;;;20.00;99.90;;;;;;5112062;28;20199;-60
2022/05/21 10:57:25;;;;;;;7.53;5.33;;;20.00;99.90;;;;;;5111722;28;20231;-59
2022/05/21 11:00:05;;;;;;;8.73;5.67;;;20.00;99.90;;;;;;5112715;28;20187;-59
2022/05/21 11:03:04;;;;;;;8.77;5.30;;;20.10;99.90;;;;;;5112279;28;20286;-61
2022/05/21 11:05:53;;;;;;;6.90;4.90;;;20.20;99.90;;;;;;5112144;28;20534;-61
2022/05/21 11:08:28;;;;;;;11.23;6.50;;;20.30;99.90;;;;;;5101496;28;20322;-62
2022/05/21 11:11:01;;;;;;;9.73;6.07;;;20.50;99.90;;;;;;5111959;28;20195;-60
2022/05/21 11:13:34;;;;;;;8.43;5.77;;;20.60;99.90;;;;;;5112100;28;20185;-61
2022/05/21 11:16:04;;;;;;;10.27;5.57;;;20.80;99.90;;;;;;5111741;28;20205;-60
2022/05/21 11:18:39;;;;;;;8.40;4.90;;;20.90;99.90;;;;;;5112032;28;20225;-61
2022/05/21 11:21:12;;;;;;;8.67;5.83;;;21.00;99.90;;;;;;5112072;28;20191;-60
2022/05/21 11:23:50;;;;;;;7.53;5.20;;;21.10;99.90;;;;;;5112069;28;20187;-61
2022/05/21 11:26:26;;;;;;;11.60;5.33;;;21.20;99.90;;;;;;5111883;28;20205;-60
2022/05/21 11:28:57;;;;;;;9.47;5.30;;;21.30;99.90;;;;;;5111965;28;20187;-61
2022/05/21 11:39:42;;;;;;;12.47;5.60;;;21.60;99.90;;;;;;5071508;28;20242;-63
2022/05/21 11:42:14;;;;;;;9.33;5.10;;;21.60;99.90;;;;;;5070899;28;20204;-60
2022/05/21 11:44:58;;;;;;;7.23;4.87;;;21.60;99.90;;;;;;5071374;28;20209;-64
2022/05/21 11:48:12;;;;;;;11.47;5.20;;;21.60;99.90;;;;;;5070850;28;20213;-60
2022/05/21 11:50:40;;;;;;;9.73;5.30;;;21.50;99.90;;;;;;5088182;28;20203;-61
2022/05/21 11:53:34;;;;;;;8.57;4.80;;;21.50;99.90;;;;;;5079160;28;20263;-62
2022/05/21 11:56:05;;;;;;;8.87;4.43;;;21.40;99.90;;;;;;5083574;28;20228;-63
2022/05/21 11:59:12;;;;;;;7.57;5.13;;;21.40;99.90;;;;;;5093143;28;20654;-61
2022/05/21 12:01:54;;;;;;;8.30;5.27;;;21.40;99.90;;;;;;5074706;28;20268;-62
2022/05/21 12:04:43;;;;;;;11.47;5.97;;;21.40;99.90;;;;;;5074804;28;20663;-61
2022/05/21 12:07:17;;;;;;;10.13;5.60;;;21.40;99.90;;;;;;5074290;28;20212;-62
2022/05/21 12:10:00;;;;;;;10.37;5.27;;;21.60;99.90;;;;;;5094936;28;20206;-61
2022/05/21 12:12:29;;;;;;;10.13;4.83;;;21.60;99.90;;;;;;5094610;28;20185;-62
2022/05/21 12:14:58;;;;;;;12.60;5.27;;;21.70;99.90;;;;;;5094671;28;20545;-62
2022/05/21 12:17:44;;;;;;;9.17;5.73;;;21.90;99.90;;;;;;5094372;28;20219;-61
2022/05/21 12:20:11;;;;;;;9.50;4.63;;;22.10;99.90;;;;;;5094552;28;20199;-62
2022/05/21 12:22:56;;;;;;;7.70;4.60;;;22.20;99.90;;;;;;5094272;28;20207;-62
2022/05/21 12:26:00;;;;;;;7.00;4.50;;;22.40;99.90;;;;;;5084414;28;20193;-60
2022/05/21 12:28:45;;;;;;;7.37;4.90;;;22.50;99.90;;;;;;5073824;28;20213;-61
2022/05/21 12:31:19;;;;;;;10.23;4.23;;;22.60;99.90;;;;;;5073261;28;20208;-63
2022/05/21 12:33:58;;;;;;;6.53;4.50;;;22.70;99.90;;;;;;5073946;28;20196;-62
2022/05/21 12:36:40;;;;;;;7.30;3.97;;;22.80;99.90;;;;;;5073439;28;20200;-61
2022/05/21 12:39:11;;;;;;;8.30;4.20;;;22.90;99.90;;;;;;5073363;28;20199;-60
2022/05/21 12:41:43;;;;;;;7.50;4.10;;;23.00;99.90;;;;;;5085832;28;20192;-60
2022/05/21 12:44:11;;;;;;;9.60;4.30;;;23.00;99.90;;;;;;5093931;28;20646;-60
2022/05/21 12:46:41;;;;;;;8.47;4.07;;;23.00;99.90;;;;;;5094271;28;20286;-62
2022/05/21 12:49:12;;;;;;;6.90;3.90;;;23.00;99.90;;;;;;5094345;28;20208;-60
2022/05/21 12:51:42;;;;;;;5.50;3.70;;;23.00;99.90;;;;;;5094115;28;20199;-61
2022/05/21 12:54:19;;;;;;;7.63;3.83;;;23.10;99.90;;;;;;5093819;28;20774;-62
2022/05/21 12:56:46;;;;;;;8.70;4.20;;;23.10;99.90;;;;;;5093539;28;20238;-62
2022/05/21 12:59:18;;;;;;;5.70;3.83;;;23.20;99.90;;;;;;5086398;28;20428;-62
2022/05/21 13:01:54;;;;;;;6.70;3.93;;;23.30;99.90;;;;;;5073289;28;20611;-61
2022/05/21 13:04:25;;;;;;;7.50;3.77;;;23.40;99.90;;;;;;5073070;28;20283;-60
2022/05/21 13:06:56;;;;;;;9.17;3.40;;;23.50;99.90;;;;;;5073205;28;20200;-64
2022/05/21 13:09:23;;;;;;;5.47;3.70;;;23.50;99.90;;;;;;5072711;28;20300;-63
2022/05/21 13:11:50;;;;;;;6.93;3.27;;;23.60;99.90;;;;;;5072987;28;20206;-63
2022/05/21 13:14:27;;;;;;;6.40;3.63;;;23.60;99.90;;;;;;5073274;28;20233;-63
2022/05/21 13:16:57;;;;;;;4.70;3.10;;;23.70;99.90;;;;;;5072755;28;20233;-64
2022/05/21 13:19:54;;;;;;;6.23;3.13;;;23.60;99.90;;;;;;5073329;28;20655;-62
2022/05/21 13:22:30;;;;;;;4.00;2.77;;;23.60;99.90;;;;;;5066934;28;20207;-61
2022/05/21 13:25:02;;;;;;;4.60;3.03;;;23.60;99.90;;;;;;5072943;28;20195;-64
2022/05/21 13:27:29;;;;;;;5.30;2.57;;;23.60;99.90;;;;;;5073036;28;20540;-62
2022/05/21 13:29:56;;;;;;;7.20;2.30;;;23.70;99.90;;;;;;5073839;28;20211;-64
2022/05/21 13:32:27;;;;;;;4.90;2.50;;;23.70;99.90;;;;;;5076494;28;20212;-62
2022/05/21 13:34:57;;;;;;;5.27;2.70;;;23.70;99.90;;;;;;5078187;28;20539;-60